Terminal Aerodrome Forecast
Issued by NWS

Home | Current Version | Previous Version | Text Only | Print | Product List | Glossary On
Versions: 1 2 3 4 5 6 7 8 9 10 11 12 13 14 15 16
000
FTUS41 KBTV 250520
TAFRUT
TAF
KRUT 250520Z 2506/2606 13007KT P6SM BKN200
     FM251100 12012G20KT P6SM BKN120
     FM251200 12014G28KT P6SM VCSH BKN120
     FM251500 11021G30KT 6SM -RA BR OVC070
     FM251800 10020G35KT P6SM VCSH OVC045
     FM260400 10015G25KT 5SM -RA BR OVC035=

USA.gov is the U.S. government's official web portal to all federal, state and local government web resources and services.